createdAt,value
2022-07-29T00:00:07.997Z,99.90
2022-07-29T00:02:55.546Z,99.90
2022-07-29T00:05:43.450Z,99.90
2022-07-29T00:08:31.003Z,99.90
2022-07-29T00:11:19.947Z,99.90
2022-07-29T00:14:07.752Z,99.90
2022-07-29T00:16:57.244Z,99.90
2022-07-29T00:19:45.711Z,99.90
2022-07-29T00:22:33.097Z,99.90
2022-07-29T00:25:20.877Z,99.90
2022-07-29T00:28:10.254Z,99.90
2022-07-29T00:30:57.801Z,99.90
2022-07-29T00:33:45.196Z,99.90
2022-07-29T00:36:31.661Z,99.90
2022-07-29T00:39:19.321Z,99.90
2022-07-29T00:42:07.272Z,99.90
2022-07-29T00:44:56.369Z,99.90
2022-07-29T00:47:44.176Z,99.90
2022-07-29T00:50:31.543Z,99.90
2022-07-29T00:53:19.292Z,99.90
2022-07-29T00:56:06.528Z,99.90
2022-07-29T00:58:54.476Z,99.90
2022-07-29T01:01:43.589Z,99.90
2022-07-29T01:04:31.917Z,99.90
2022-07-29T01:07:19.580Z,99.90
2022-07-29T01:10:08.666Z,99.90
2022-07-29T01:12:57.048Z,99.90
2022-07-29T01:15:48.938Z,99.90
2022-07-29T01:18:41.643Z,99.90
2022-07-29T01:21:50.121Z,99.90
2022-07-29T01:24:52.079Z,99.90
2022-07-29T01:27:47.152Z,99.90
2022-07-29T01:30:37.792Z,99.90
2022-07-29T01:33:43.760Z,99.90
2022-07-29T01:36:33.333Z,99.90
2022-07-29T01:39:24.587Z,99.90
2022-07-29T01:42:15.171Z,99.90
2022-07-29T01:45:05.210Z,99.90
2022-07-29T01:47:56.671Z,99.90
2022-07-29T01:50:48.674Z,99.90
2022-07-29T01:53:39.949Z,99.90
2022-07-29T01:56:30.782Z,99.90
2022-07-29T01:59:19.052Z,99.90
2022-07-29T02:02:07.041Z,99.90
2022-07-29T02:04:56.813Z,99.90
2022-07-29T02:07:45.211Z,99.90
2022-07-29T02:10:35.080Z,99.90
2022-07-29T02:13:23.443Z,99.90
2022-07-29T02:16:11.779Z,99.90
2022-07-29T02:19:00.302Z,99.90
2022-07-29T02:21:49.972Z,99.90
2022-07-29T02:24:37.819Z,99.90
2022-07-29T02:27:26.041Z,99.90
2022-07-29T02:30:14.292Z,99.90
2022-07-29T02:33:01.985Z,99.90
2022-07-29T02:35:50.020Z,99.90
2022-07-29T02:38:58.625Z,99.90
2022-07-29T02:41:47.813Z,99.90
2022-07-29T02:44:36.255Z,99.90
2022-07-29T02:47:26.382Z,99.90
2022-07-29T02:50:15.007Z,99.90
2022-07-29T02:53:04.776Z,99.90
2022-07-29T02:55:56.489Z,99.90
2022-07-29T02:58:47.272Z,99.90
2022-07-29T03:01:36.114Z,99.90
2022-07-29T03:04:25.270Z,99.90
2022-07-29T03:07:15.301Z,99.90
2022-07-29T03:10:03.561Z,99.90
2022-07-29T03:12:52.827Z,99.90
2022-07-29T03:15:40.626Z,99.90
2022-07-29T03:18:28.646Z,99.90
2022-07-29T03:21:16.699Z,99.90
2022-07-29T03:24:10.094Z,99.90
2022-07-29T03:26:59.092Z,99.90
2022-07-29T03:29:49.997Z,99.90
2022-07-29T03:32:38.541Z,99.90
2022-07-29T03:35:27.535Z,99.90
2022-07-29T03:38:15.287Z,99.90
2022-07-29T03:41:04.404Z,99.90
2022-07-29T03:43:52.365Z,99.90
2022-07-29T03:46:42.151Z,99.90
2022-07-29T03:49:29.982Z,99.90
2022-07-29T03:52:17.553Z,99.90
2022-07-29T03:55:05.396Z,99.90
2022-07-29T03:57:54.215Z,99.90
2022-07-29T04:00:41.835Z,99.90
2022-07-29T04:03:30.698Z,99.90
2022-07-29T04:06:18.204Z,99.90
2022-07-29T04:09:05.458Z,99.90
2022-07-29T04:12:03.241Z,99.90
2022-07-29T04:14:51.490Z,99.90
2022-07-29T04:17:39.460Z,99.90
2022-07-29T04:20:28.921Z,99.90
2022-07-29T04:23:16.866Z,99.90
2022-07-29T04:26:05.254Z,99.90
2022-07-29T04:28:52.719Z,99.90
2022-07-29T04:31:40.688Z,99.90
2022-07-29T04:34:28.482Z,99.90
2022-07-29T04:37:17.885Z,99.90
2022-07-29T04:40:05.700Z,99.90
2022-07-29T04:42:53.293Z,99.90
2022-07-29T04:45:41.831Z,99.90
2022-07-29T04:48:29.626Z,99.90
2022-07-29T04:51:17.455Z,99.90
2022-07-29T04:54:07.203Z,99.90
2022-07-29T04:56:54.761Z,99.90
2022-07-29T04:59:42.568Z,99.90
2022-07-29T05:02:30.011Z,99.90
2022-07-29T05:05:17.853Z,99.90
2022-07-29T05:08:05.693Z,99.90
2022-07-29T05:10:54.675Z,99.90
2022-07-29T05:13:45.325Z,99.90
2022-07-29T05:16:34.549Z,99.90
2022-07-29T05:19:22.202Z,99.90
2022-07-29T05:22:09.932Z,99.90
2022-07-29T05:24:57.657Z,99.90
2022-07-29T05:27:46.794Z,99.90
2022-07-29T05:30:38.682Z,99.90
2022-07-29T05:33:34.903Z,99.90
2022-07-29T05:36:24.392Z,99.90
2022-07-29T05:39:11.854Z,99.90
2022-07-29T05:41:59.747Z,99.90
2022-07-29T05:44:49.710Z,99.90
2022-07-29T05:47:37.103Z,99.90
2022-07-29T05:50:26.028Z,99.90
2022-07-29T05:53:19.723Z,99.90
2022-07-29T05:56:08.381Z,99.90
2022-07-29T05:58:55.992Z,99.90
2022-07-29T06:01:45.157Z,99.90
2022-07-29T06:04:32.622Z,99.90
2022-07-29T06:07:20.266Z,99.90
2022-07-29T06:10:08.100Z,99.90
2022-07-29T06:12:56.019Z,99.90
2022-07-29T06:15:43.761Z,99.90
2022-07-29T06:18:32.659Z,99.90
2022-07-29T06:21:20.265Z,99.90
2022-07-29T06:24:08.524Z,99.90
2022-07-29T06:26:57.081Z,99.90
2022-07-29T06:29:44.534Z,99.90
2022-07-29T06:32:32.284Z,99.90
2022-07-29T06:35:41.386Z,99.90
2022-07-29T06:38:30.917Z,99.90
2022-07-29T06:41:21.250Z,99.90
2022-07-29T06:44:08.693Z,99.90
2022-07-29T06:46:56.468Z,99.90
2022-07-29T06:49:43.746Z,99.90
2022-07-29T06:52:32.812Z,99.90
2022-07-29T06:55:25.198Z,99.90
2022-07-29T06:58:13.048Z,99.90
2022-07-29T07:01:02.748Z,99.90
2022-07-29T07:03:50.515Z,99.90
2022-07-29T07:06:38.243Z,99.90
2022-07-29T07:09:31.112Z,99.90
2022-07-29T07:12:28.476Z,99.90
2022-07-29T07:15:15.988Z,99.90
2022-07-29T07:18:04.188Z,99.90
2022-07-29T07:20:51.704Z,99.90
2022-07-29T07:23:39.498Z,99.90
2022-07-29T07:26:28.537Z,99.90
2022-07-29T07:29:16.174Z,99.90
2022-07-29T07:32:04.428Z,99.90
2022-07-29T07:34:52.232Z,99.90
2022-07-29T07:37:41.501Z,99.90
2022-07-29T07:40:28.933Z,99.90
2022-07-29T07:43:17.861Z,99.90
2022-07-29T07:46:05.702Z,99.90
2022-07-29T07:48:54.060Z,99.90
2022-07-29T07:51:41.652Z,99.90
2022-07-29T07:54:29.037Z,99.90
2022-07-29T07:57:16.833Z,99.90
2022-07-29T08:00:06.555Z,99.90
2022-07-29T08:03:00.519Z,99.90
2022-07-29T08:05:48.629Z,99.90
2022-07-29T08:08:36.884Z,99.90
2022-07-29T08:11:24.760Z,99.90
2022-07-29T08:14:12.536Z,99.90
2022-07-29T08:17:02.904Z,99.90
2022-07-29T08:19:50.933Z,99.90
2022-07-29T08:22:38.645Z,99.90
2022-07-29T08:25:26.097Z,99.90
2022-07-29T08:28:13.791Z,99.90
2022-07-29T08:31:01.645Z,99.90
2022-07-29T08:33:50.652Z,99.90
2022-07-29T08:36:38.173Z,99.90
2022-07-29T08:39:26.075Z,99.90
2022-07-29T08:42:13.384Z,99.90
2022-07-29T08:45:00.977Z,99.90
2022-07-29T08:47:49.013Z,99.90
2022-07-29T08:50:39.101Z,99.90
2022-07-29T08:53:28.307Z,99.90
2022-07-29T08:56:17.846Z,99.90
2022-07-29T08:59:06.013Z,99.90
2022-07-29T09:01:55.731Z,99.90
2022-07-29T09:04:46.316Z,99.70
2022-07-29T09:07:35.335Z,99.90
2022-07-29T09:10:23.085Z,99.90
2022-07-29T09:13:10.669Z,99.00
2022-07-29T09:15:58.631Z,97.30
2022-07-29T09:18:47.398Z,99.90
2022-07-29T09:22:03.363Z,99.90
2022-07-29T09:24:52.950Z,99.30
2022-07-29T09:27:40.597Z,99.50
2022-07-29T09:30:31.608Z,99.90
2022-07-29T09:33:19.447Z,98.60
2022-07-29T09:36:08.144Z,99.30
2022-07-29T09:38:59.527Z,99.90
2022-07-29T09:41:49.453Z,99.90
2022-07-29T09:44:46.814Z,99.10
2022-07-29T09:47:42.727Z,99.30
2022-07-29T09:50:40.993Z,99.20
2022-07-29T09:53:32.564Z,98.10
2022-07-29T09:56:19.936Z,97.50
2022-07-29T09:59:09.191Z,97.80
2022-07-29T10:01:56.837Z,97.30
2022-07-29T10:04:44.888Z,97.70
2022-07-29T10:07:48.367Z,97.80
2022-07-29T10:10:40.600Z,97.90
2022-07-29T10:13:28.624Z,97.60
2022-07-29T10:16:17.834Z,97.20
2022-07-29T10:19:05.516Z,97.90
2022-07-29T10:21:57.914Z,97.10
2022-07-29T10:24:46.025Z,97.10
2022-07-29T10:27:33.739Z,97.40
2022-07-29T10:30:21.706Z,95.80
2022-07-29T10:33:35.400Z,96.50
2022-07-29T10:36:34.275Z,96.30
2022-07-29T10:39:26.784Z,96.10
2022-07-29T10:42:34.285Z,96.50
2022-07-29T10:45:22.340Z,95.70
2022-07-29T10:48:11.223Z,96.50
2022-07-29T10:51:05.434Z,97.10
2022-07-29T10:53:55.053Z,96.40
2022-07-29T10:56:43.055Z,95.90
2022-07-29T10:59:36.048Z,94.90
2022-07-29T11:02:43.959Z,95.40
2022-07-29T11:05:53.065Z,94.80
2022-07-29T11:08:44.302Z,94.70
2022-07-29T11:11:36.778Z,94.00
2022-07-29T11:14:39.954Z,94.80
2022-07-29T11:17:46.871Z,93.40
2022-07-29T11:20:37.943Z,93.50
2022-07-29T11:23:27.614Z,91.50
2022-07-29T11:26:24.880Z,92.20
2022-07-29T11:29:19.051Z,92.90
2022-07-29T11:32:15.707Z,91.40
2022-07-29T11:35:17.221Z,93.30
2022-07-29T11:38:28.086Z,92.50
2022-07-29T11:41:27.434Z,92.80
2022-07-29T11:44:17.920Z,93.00
2022-07-29T11:47:05.904Z,92.70
2022-07-29T11:49:55.306Z,91.80
2022-07-29T11:52:49.618Z,91.90
2022-07-29T11:55:38.871Z,92.80
2022-07-29T11:58:40.586Z,93.30
2022-07-29T12:01:28.503Z,92.00
2022-07-29T12:04:15.909Z,92.20
2022-07-29T12:09:56.900Z,92.90
2022-07-29T12:12:44.777Z,91.60
2022-07-29T12:15:45.816Z,91.70
2022-07-29T12:18:33.939Z,92.40
2022-07-29T12:21:21.206Z,93.50
2022-07-29T12:24:13.617Z,91.70
2022-07-29T12:27:02.398Z,92.40
2022-07-29T12:29:57.439Z,92.00
2022-07-29T12:32:48.871Z,93.70
2022-07-29T12:35:36.799Z,91.60
2022-07-29T12:38:24.669Z,92.00
2022-07-29T12:41:12.502Z,91.00
2022-07-29T12:44:01.716Z,91.30
2022-07-29T12:47:03.311Z,91.50
2022-07-29T12:49:53.370Z,88.10
2022-07-29T12:52:40.670Z,90.80
2022-07-29T12:55:40.682Z,90.00
2022-07-29T12:58:29.470Z,87.90
2022-07-29T13:01:18.353Z,90.10
2022-07-29T13:04:05.695Z,87.40
2022-07-29T13:07:00.500Z,90.40
2022-07-29T13:09:49.793Z,89.60
2022-07-29T13:12:37.271Z,87.90
2022-07-29T13:15:24.928Z,89.00
2022-07-29T13:18:31.212Z,86.90
2022-07-29T13:21:18.886Z,87.50
2022-07-29T13:24:09.126Z,89.60
2022-07-29T13:26:56.855Z,88.30
2022-07-29T13:29:44.301Z,83.30
2022-07-29T13:32:34.780Z,82.40
2022-07-29T13:35:22.227Z,82.10
2022-07-29T13:38:09.977Z,86.00
2022-07-29T13:40:58.927Z,87.40
2022-07-29T13:43:46.674Z,89.50
2022-07-29T13:46:37.718Z,87.80
2022-07-29T13:49:28.318Z,88.60
2022-07-29T13:52:15.715Z,89.20
2022-07-29T13:55:03.488Z,89.80
2022-07-29T13:57:52.475Z,90.50
2022-07-29T14:00:39.843Z,90.70
2022-07-29T14:03:27.248Z,90.90
2022-07-29T14:06:15.817Z,91.00
2022-07-29T14:09:07.249Z,90.60
2022-07-29T14:11:55.217Z,90.70
2022-07-29T14:14:44.609Z,91.00
2022-07-29T14:17:35.024Z,90.40
2022-07-29T14:20:22.371Z,91.20
2022-07-29T14:23:10.028Z,91.60
2022-07-29T14:25:57.347Z,92.30
2022-07-29T14:28:45.634Z,91.20
2022-07-29T14:31:35.762Z,91.90
2022-07-29T14:34:23.253Z,91.70
2022-07-29T14:37:15.777Z,92.00
2022-07-29T14:40:04.987Z,92.00
2022-07-29T14:42:52.392Z,92.70
2022-07-29T14:45:40.132Z,92.70
2022-07-29T14:48:28.873Z,93.10
2022-07-29T14:51:16.676Z,92.40
2022-07-29T14:54:04.078Z,92.50
2022-07-29T14:56:51.968Z,91.00
2022-07-29T14:59:39.222Z,91.20
2022-07-29T15:02:45.722Z,91.90
2022-07-29T15:05:36.040Z,92.00
2022-07-29T15:08:24.082Z,91.50
2022-07-29T15:11:11.386Z,92.00
2022-07-29T15:13:59.005Z,91.90
2022-07-29T15:16:47.996Z,91.80
2022-07-29T15:19:36.123Z,91.60
2022-07-29T15:22:24.793Z,92.20
2022-07-29T15:25:13.344Z,92.50
2022-07-29T15:28:03.921Z,93.40
2022-07-29T15:30:51.735Z,93.40
2022-07-29T15:33:39.449Z,93.30
2022-07-29T15:36:50.642Z,93.50
2022-07-29T15:39:36.439Z,94.00
2022-07-29T15:42:24.496Z,93.80
2022-07-29T15:45:12.847Z,93.10
2022-07-29T15:48:00.511Z,93.70
2022-07-29T15:50:48.285Z,93.90
2022-07-29T15:53:35.767Z,94.60
2022-07-29T15:56:24.962Z,92.90
2022-07-29T15:59:22.416Z,92.90
2022-07-29T16:02:11.245Z,93.00
2022-07-29T16:04:58.782Z,93.30
2022-07-29T16:07:46.373Z,93.30
2022-07-29T16:10:34.072Z,94.00
2022-07-29T16:13:23.068Z,93.90
2022-07-29T16:16:11.947Z,94.50
2022-07-29T16:18:59.645Z,94.50
2022-07-29T16:21:47.155Z,94.40
2022-07-29T16:24:34.802Z,94.70
2022-07-29T16:27:24.889Z,94.30
2022-07-29T16:30:13.881Z,94.50
2022-07-29T16:33:03.245Z,93.60
2022-07-29T16:35:53.978Z,93.50
2022-07-29T16:38:47.329Z,93.70
2022-07-29T16:41:36.460Z,93.90
2022-07-29T16:44:25.095Z,93.90
2022-07-29T16:47:14.035Z,94.40
2022-07-29T16:50:01.584Z,94.20
2022-07-29T16:52:49.165Z,93.60
2022-07-29T16:55:36.757Z,93.40
2022-07-29T16:58:24.138Z,93.00
2022-07-29T17:01:11.804Z,92.50
2022-07-29T17:04:07.204Z,92.70
2022-07-29T17:06:55.174Z,92.40
2022-07-29T17:09:43.406Z,93.60
2022-07-29T17:12:31.186Z,93.20
2022-07-29T17:15:19.579Z,93.20
2022-07-29T17:18:12.443Z,94.80
2022-07-29T17:21:02.131Z,94.40
2022-07-29T17:23:49.574Z,94.00
2022-07-29T17:26:36.883Z,94.80
2022-07-29T17:29:24.616Z,94.30
2022-07-29T17:32:12.156Z,93.70
2022-07-29T17:34:59.478Z,94.40
2022-07-29T17:37:48.546Z,95.00
2022-07-29T17:40:36.095Z,95.40
2022-07-29T17:43:23.631Z,96.10
2022-07-29T17:46:12.663Z,96.80
2022-07-29T17:49:00.454Z,97.00
2022-07-29T17:51:48.077Z,97.40
2022-07-29T17:54:36.950Z,97.80
2022-07-29T17:57:24.688Z,98.20
2022-07-29T18:00:13.638Z,98.60
2022-07-29T18:03:00.901Z,99.30
2022-07-29T18:05:49.507Z,99.70
2022-07-29T18:08:37.403Z,99.90
2022-07-29T18:11:26.388Z,99.90
2022-07-29T18:14:14.550Z,99.90
2022-07-29T18:17:02.321Z,99.90
2022-07-29T18:19:49.552Z,99.90
2022-07-29T18:22:37.186Z,99.90
2022-07-29T18:25:25.804Z,99.90
2022-07-29T18:28:14.735Z,99.90
2022-07-29T18:31:02.842Z,99.90
2022-07-29T18:33:50.457Z,99.90
2022-07-29T18:36:38.269Z,99.90
2022-07-29T18:39:25.675Z,99.90
2022-07-29T18:42:13.143Z,99.90
2022-07-29T18:45:02.466Z,99.90
2022-07-29T18:47:51.874Z,99.90
2022-07-29T18:50:40.751Z,99.90
2022-07-29T18:53:29.031Z,99.90
2022-07-29T18:56:16.241Z,99.90
2022-07-29T18:59:04.354Z,99.90
2022-07-29T19:01:53.481Z,99.90
2022-07-29T19:04:41.329Z,99.90
2022-07-29T19:07:29.873Z,99.90
2022-07-29T19:10:17.527Z,99.90
2022-07-29T19:13:06.185Z,99.90
2022-07-29T19:15:53.949Z,99.90
2022-07-29T19:18:44.726Z,99.90
2022-07-29T19:21:32.098Z,99.90
2022-07-29T19:24:19.337Z,99.90
2022-07-29T19:27:06.907Z,99.90
2022-07-29T19:29:56.707Z,99.90
2022-07-29T19:32:46.861Z,99.90
2022-07-29T19:35:35.984Z,99.90
2022-07-29T19:38:23.563Z,99.90
2022-07-29T19:41:11.225Z,99.90
2022-07-29T19:43:58.889Z,99.90
2022-07-29T19:46:46.502Z,99.90
2022-07-29T19:49:37.218Z,99.90
2022-07-29T19:52:26.480Z,99.90
2022-07-29T19:55:14.308Z,99.90
2022-07-29T19:58:03.343Z,99.90
2022-07-29T20:00:52.703Z,99.90
2022-07-29T20:03:40.990Z,99.90
2022-07-29T20:06:28.460Z,99.90
2022-07-29T20:09:20.744Z,99.90
2022-07-29T20:12:08.878Z,99.90
2022-07-29T20:14:56.485Z,99.90
2022-07-29T20:17:44.084Z,99.90
2022-07-29T20:20:31.796Z,99.90
2022-07-29T20:23:22.272Z,99.90
2022-07-29T20:26:11.303Z,99.90
2022-07-29T20:28:58.876Z,99.90
2022-07-29T20:31:52.900Z,99.90
2022-07-29T20:34:43.984Z,99.90
2022-07-29T20:37:32.725Z,99.90
2022-07-29T20:40:39.545Z,99.90
2022-07-29T20:43:28.345Z,99.90
2022-07-29T20:46:15.957Z,99.90
2022-07-29T20:49:03.405Z,99.90
2022-07-29T20:51:50.798Z,99.90
2022-07-29T20:54:38.369Z,99.90
2022-07-29T20:57:39.079Z,99.90
2022-07-29T21:00:29.700Z,99.90
2022-07-29T21:03:18.363Z,99.90
2022-07-29T21:06:06.264Z,99.90
2022-07-29T21:08:55.834Z,99.90
2022-07-29T21:11:45.126Z,99.90
2022-07-29T21:17:27.519Z,99.90
2022-07-29T21:20:15.644Z,99.90
2022-07-29T21:23:03.115Z,99.90
2022-07-29T21:25:50.510Z,99.90
2022-07-29T21:28:40.125Z,99.90
2022-07-29T21:31:28.361Z,99.90
2022-07-29T21:34:17.354Z,99.90
2022-07-29T21:37:05.319Z,99.90
2022-07-29T21:39:54.786Z,99.90
2022-07-29T21:42:42.587Z,99.90
2022-07-29T21:45:33.091Z,99.90
2022-07-29T21:48:21.314Z,99.90
2022-07-29T21:51:09.932Z,99.90
2022-07-29T21:53:57.363Z,99.90
2022-07-29T21:56:45.182Z,99.90
2022-07-29T21:59:38.864Z,99.90
2022-07-29T22:02:26.245Z,99.90
2022-07-29T22:05:14.005Z,99.90
2022-07-29T22:08:02.644Z,99.90
2022-07-29T22:10:49.938Z,99.90
2022-07-29T22:13:37.261Z,99.90
2022-07-29T22:16:25.142Z,99.90
2022-07-29T22:19:12.727Z,99.90
2022-07-29T22:22:00.195Z,99.90
2022-07-29T22:24:49.201Z,99.90
2022-07-29T22:27:36.981Z,99.90
2022-07-29T22:30:24.387Z,99.90
2022-07-29T22:33:17.587Z,99.90
2022-07-29T22:36:05.580Z,99.90
2022-07-29T22:38:52.869Z,99.90
2022-07-29T22:41:42.182Z,99.90
2022-07-29T22:44:29.829Z,99.90
2022-07-29T22:47:17.354Z,99.90
2022-07-29T22:50:04.848Z,99.90
2022-07-29T22:52:52.136Z,99.90
2022-07-29T22:55:39.689Z,99.90
2022-07-29T22:58:28.704Z,99.90
2022-07-29T23:01:16.416Z,99.90
2022-07-29T23:04:23.847Z,99.90
2022-07-29T23:07:11.317Z,99.90
2022-07-29T23:09:58.875Z,99.90
2022-07-29T23:12:46.108Z,99.90
2022-07-29T23:15:35.225Z,99.90
2022-07-29T23:18:22.618Z,99.90
2022-07-29T23:21:10.351Z,99.90
2022-07-29T23:23:57.950Z,99.90
2022-07-29T23:26:45.313Z,99.90
2022-07-29T23:29:36.775Z,99.90
2022-07-29T23:32:25.989Z,99.90
2022-07-29T23:35:13.147Z,99.90
2022-07-29T23:38:00.681Z,99.90
2022-07-29T23:40:48.493Z,99.90
2022-07-29T23:43:35.977Z,99.90
2022-07-29T23:46:24.049Z,99.90
2022-07-29T23:49:13.729Z,99.90
2022-07-29T23:52:01.457Z,99.90
2022-07-29T23:54:48.857Z,99.90
2022-07-29T23:57:36.329Z,99.90
